createdAt,value
2023-03-18T00:01:04.101Z,2.95
2023-03-18T00:03:32.609Z,3.40
2023-03-18T00:06:05.223Z,3.47
2023-03-18T00:08:33.879Z,3.30
2023-03-18T00:11:02.163Z,3.33
2023-03-18T00:13:29.968Z,3.08
2023-03-18T00:15:57.924Z,3.22
2023-03-18T00:18:27.422Z,3.08
2023-03-18T00:20:55.579Z,3.80
2023-03-18T00:23:23.443Z,3.20
2023-03-18T00:25:54.153Z,3.20
2023-03-18T00:28:22.331Z,2.67
2023-03-18T00:30:51.698Z,2.97
2023-03-18T00:33:20.222Z,2.77
2023-03-18T00:35:49.564Z,3.28
2023-03-18T00:38:20.938Z,2.80
2023-03-18T00:41:01.534Z,3.10
2023-03-18T00:43:33.802Z,2.47
2023-03-18T00:46:04.065Z,2.80
2023-03-18T00:48:31.990Z,3.60
2023-03-18T00:51:01.184Z,4.13
2023-03-18T00:53:29.053Z,4.93
2023-03-18T00:55:56.969Z,4.32
2023-03-18T00:58:25.729Z,4.70
2023-03-18T01:00:53.628Z,5.40
2023-03-18T01:03:25.582Z,5.30
2023-03-18T01:05:54.224Z,5.60
2023-03-18T01:08:23.733Z,5.80
2023-03-18T01:10:53.456Z,5.85
2023-03-18T01:13:21.414Z,5.97
2023-03-18T01:15:49.261Z,5.82
2023-03-18T01:18:17.702Z,6.35
2023-03-18T01:20:45.735Z,6.57
2023-03-18T01:23:15.255Z,6.75
2023-03-18T01:25:45.900Z,7.47
2023-03-18T01:28:19.477Z,7.38
2023-03-18T01:30:47.797Z,7.40
2023-03-18T01:33:20.051Z,7.28
2023-03-18T01:35:49.462Z,7.82
2023-03-18T01:38:17.449Z,7.40
2023-03-18T01:40:46.695Z,8.10
2023-03-18T01:43:23.949Z,9.00
2023-03-18T01:45:55.330Z,7.47
2023-03-18T01:48:25.442Z,8.27
2023-03-18T01:51:02.882Z,8.75
2023-03-18T01:53:36.076Z,8.13
2023-03-18T01:56:06.330Z,8.75
2023-03-18T02:01:09.429Z,8.15
2023-03-18T02:03:41.482Z,8.30
2023-03-18T02:06:10.397Z,8.05
2023-03-18T02:08:39.486Z,9.07
2023-03-18T02:11:10.376Z,7.85
2023-03-18T02:13:42.540Z,9.02
2023-03-18T02:16:16.212Z,8.52
2023-03-18T02:18:48.134Z,8.75
2023-03-18T02:21:29.636Z,9.30
2023-03-18T02:24:07.186Z,7.97
2023-03-18T02:26:44.082Z,7.55
2023-03-18T02:29:16.527Z,8.55
2023-03-18T02:31:51.861Z,8.68
2023-03-18T02:34:26.086Z,8.70
2023-03-18T02:36:57.225Z,8.60
2023-03-18T02:39:25.832Z,9.27
2023-03-18T02:41:56.581Z,9.02
2023-03-18T02:44:26.946Z,8.73
2023-03-18T02:47:20.138Z,9.00
2023-03-18T02:49:48.143Z,9.18
2023-03-18T02:52:16.765Z,8.65
2023-03-18T02:54:44.671Z,8.82
2023-03-18T02:57:12.533Z,8.50
2023-03-18T02:59:44.136Z,9.10
2023-03-18T03:02:12.149Z,8.50
2023-03-18T03:04:39.979Z,8.52
2023-03-18T03:07:08.061Z,8.25
2023-03-18T03:09:41.849Z,9.10
2023-03-18T03:12:10.474Z,8.40
2023-03-18T03:14:45.910Z,8.80
2023-03-18T03:17:16.567Z,8.90
2023-03-18T03:19:45.805Z,8.73
2023-03-18T03:24:47.555Z,8.13
2023-03-18T03:27:15.583Z,8.98
2023-03-18T03:29:45.115Z,9.00
2023-03-18T03:32:13.182Z,9.05
2023-03-18T03:34:41.469Z,8.77
2023-03-18T03:37:12.854Z,8.90
2023-03-18T03:39:40.776Z,9.15
2023-03-18T03:42:08.800Z,8.90
2023-03-18T03:44:36.724Z,7.65
2023-03-18T03:47:06.544Z,8.60
2023-03-18T03:49:34.492Z,8.35
2023-03-18T03:52:02.783Z,8.48
2023-03-18T03:54:32.378Z,8.75
2023-03-18T03:57:01.228Z,7.75
2023-03-18T03:59:29.205Z,9.20
2023-03-18T04:02:27.127Z,8.68
2023-03-18T04:04:56.114Z,7.63
2023-03-18T04:07:30.908Z,7.57
2023-03-18T04:09:58.813Z,7.75
2023-03-18T04:12:26.632Z,7.25
2023-03-18T04:14:59.162Z,8.27
2023-03-18T04:17:28.779Z,7.90
2023-03-18T04:19:56.750Z,10.13
2023-03-18T04:22:30.616Z,9.70
2023-03-18T04:24:58.683Z,9.07
2023-03-18T04:27:26.705Z,9.35
2023-03-18T04:29:54.717Z,9.70
2023-03-18T04:32:24.764Z,11.15
2023-03-18T04:34:54.099Z,10.48
2023-03-18T04:37:22.542Z,9.70
2023-03-18T04:39:55.446Z,9.88
2023-03-18T04:42:24.009Z,10.18
2023-03-18T04:44:52.440Z,10.45
2023-03-18T04:47:20.890Z,10.20
2023-03-18T04:49:51.017Z,10.57
2023-03-18T04:52:20.259Z,10.20
2023-03-18T04:54:48.267Z,9.93
2023-03-18T04:57:18.353Z,9.60
2023-03-18T04:59:51.764Z,9.05
2023-03-18T05:02:20.445Z,9.13
2023-03-18T05:04:48.406Z,9.63
2023-03-18T05:07:17.425Z,9.15
2023-03-18T05:09:56.950Z,8.73
2023-03-18T05:12:25.609Z,9.43
2023-03-18T05:14:53.942Z,8.88
2023-03-18T05:17:21.782Z,9.65
2023-03-18T05:19:59.255Z,7.75
2023-03-18T05:22:27.524Z,8.32
2023-03-18T05:25:12.766Z,7.78
2023-03-18T05:27:41.823Z,7.50
2023-03-18T05:30:20.689Z,7.88
2023-03-18T05:32:54.083Z,8.57
2023-03-18T05:35:32.013Z,11.60
2023-03-18T05:38:00.064Z,11.45
2023-03-18T05:40:29.359Z,10.10
2023-03-18T05:43:07.020Z,9.95
2023-03-18T05:45:48.538Z,8.07
2023-03-18T05:48:18.777Z,7.75
2023-03-18T05:50:52.424Z,8.48
2023-03-18T05:53:24.581Z,8.73
2023-03-18T05:56:01.930Z,8.07
2023-03-18T05:58:32.668Z,7.85
2023-03-18T06:01:17.030Z,7.43
2023-03-18T06:03:45.179Z,7.10
2023-03-18T06:06:13.048Z,7.47
2023-03-18T06:08:41.352Z,7.80
2023-03-18T06:11:11.166Z,7.68
2023-03-18T06:13:39.297Z,8.27
2023-03-18T06:16:08.722Z,8.40
2023-03-18T06:18:36.676Z,7.30
2023-03-18T06:21:04.852Z,7.75
2023-03-18T06:23:33.872Z,8.13
2023-03-18T06:26:02.655Z,7.57
2023-03-18T06:28:37.475Z,7.82
2023-03-18T06:31:10.954Z,7.82
2023-03-18T06:33:40.212Z,7.93
2023-03-18T06:36:11.740Z,7.10
2023-03-18T06:38:45.841Z,8.15
2023-03-18T06:41:13.819Z,6.80
2023-03-18T06:43:54.788Z,7.78
2023-03-18T06:46:23.882Z,7.72
2023-03-18T06:48:52.091Z,7.60
2023-03-18T06:51:25.677Z,15.05
2023-03-18T06:53:54.577Z,16.13
2023-03-18T06:56:23.653Z,10.18
2023-03-18T06:59:02.345Z,9.05
2023-03-18T07:01:32.727Z,8.68
2023-03-18T07:04:02.839Z,7.80
2023-03-18T07:06:31.931Z,7.80
2023-03-18T07:09:01.157Z,7.68
2023-03-18T07:11:30.668Z,7.75
2023-03-18T07:14:02.698Z,7.30
2023-03-18T07:16:36.936Z,8.25
2023-03-18T07:19:05.047Z,7.60
2023-03-18T07:21:35.594Z,8.90
2023-03-18T07:24:04.056Z,8.93
2023-03-18T07:26:32.197Z,8.60
2023-03-18T07:29:00.150Z,8.50
2023-03-18T07:31:30.297Z,7.97
2023-03-18T07:33:58.500Z,9.07
2023-03-18T07:36:26.846Z,9.13
2023-03-18T07:38:54.956Z,8.63
2023-03-18T07:41:22.773Z,8.27
2023-03-18T07:43:50.789Z,7.05
2023-03-18T07:46:18.923Z,6.88
2023-03-18T07:48:48.961Z,6.78
2023-03-18T07:51:17.055Z,7.18
2023-03-18T07:53:45.759Z,5.95
2023-03-18T07:56:15.062Z,9.40
2023-03-18T07:58:43.044Z,6.38
2023-03-18T08:01:12.177Z,6.13
2023-03-18T08:03:40.091Z,5.78
2023-03-18T08:06:09.415Z,5.82
2023-03-18T08:08:37.280Z,6.20
2023-03-18T08:11:05.400Z,6.25
2023-03-18T08:13:33.893Z,5.75
2023-03-18T08:16:01.769Z,5.75
2023-03-18T08:18:29.565Z,10.10
2023-03-18T08:20:57.428Z,5.72
2023-03-18T08:23:26.643Z,5.50
2023-03-18T08:25:54.535Z,4.90
2023-03-18T08:28:22.427Z,5.13
2023-03-18T08:30:55.765Z,5.93
2023-03-18T08:33:23.808Z,5.85
2023-03-18T08:35:52.060Z,5.60
2023-03-18T08:38:19.870Z,5.95
2023-03-18T08:40:49.035Z,5.32
2023-03-18T08:43:16.932Z,5.60
2023-03-18T08:45:45.930Z,6.05
2023-03-18T08:48:13.725Z,5.35
2023-03-18T08:50:41.568Z,5.40
2023-03-18T08:53:09.542Z,4.95
2023-03-18T08:55:38.129Z,5.95
2023-03-18T08:58:08.376Z,6.07
2023-03-18T09:03:06.681Z,4.90
2023-03-18T09:05:34.999Z,6.20
2023-03-18T09:08:03.884Z,5.50
2023-03-18T09:10:31.877Z,6.43
2023-03-18T09:13:00.944Z,6.35
2023-03-18T09:15:31.664Z,5.95
2023-03-18T09:18:10.801Z,5.35
2023-03-18T09:20:40.377Z,5.72
2023-03-18T09:23:08.866Z,5.30
2023-03-18T09:25:37.120Z,6.15
2023-03-18T09:28:05.294Z,5.95
2023-03-18T09:30:34.754Z,5.50
2023-03-18T09:33:02.949Z,5.00
2023-03-18T09:35:31.246Z,5.30
2023-03-18T09:37:59.666Z,5.72
2023-03-18T09:40:30.520Z,5.75
2023-03-18T09:43:15.743Z,5.65
2023-03-18T09:45:57.240Z,4.90
2023-03-18T09:48:57.936Z,4.38
2023-03-18T09:54:06.989Z,5.00
2023-03-18T09:56:37.745Z,4.80
2023-03-18T09:59:12.412Z,5.60
2023-03-18T10:01:43.931Z,4.70
2023-03-18T10:04:18.214Z,5.28
2023-03-18T10:06:47.344Z,4.70
2023-03-18T10:09:22.058Z,5.10
2023-03-18T10:11:52.344Z,5.13
2023-03-18T10:17:09.482Z,5.10
2023-03-18T10:19:38.583Z,4.85
2023-03-18T10:22:20.467Z,5.55
2023-03-18T10:24:54.294Z,5.68
2023-03-18T10:27:33.864Z,4.75
2023-03-18T10:30:08.664Z,5.28
2023-03-18T10:32:50.339Z,4.85
2023-03-18T10:35:27.512Z,4.68
2023-03-18T10:38:04.584Z,4.15
2023-03-18T10:40:37.059Z,3.00
2023-03-18T10:43:05.684Z,3.65
2023-03-18T10:45:35.543Z,3.15
2023-03-18T10:48:10.811Z,3.40
2023-03-18T10:50:43.827Z,2.88
2023-03-18T10:53:20.806Z,3.00
2023-03-18T10:55:57.511Z,3.40
2023-03-18T10:58:25.531Z,3.50
2023-03-18T11:00:54.109Z,3.22
2023-03-18T11:03:27.892Z,3.28
2023-03-18T11:05:57.679Z,3.20
2023-03-18T11:08:38.267Z,3.10
2023-03-18T11:11:20.347Z,3.58
2023-03-18T11:13:52.779Z,3.17
2023-03-18T11:16:30.518Z,3.80
2023-03-18T11:19:00.159Z,2.85
2023-03-18T11:21:29.813Z,3.40
2023-03-18T11:24:20.990Z,4.45
2023-03-18T11:26:55.816Z,4.20
2023-03-18T11:29:27.439Z,4.00
2023-03-18T11:31:58.311Z,4.00
2023-03-18T11:34:29.209Z,3.67
2023-03-18T11:37:04.530Z,2.97
2023-03-18T11:39:36.696Z,2.80
2023-03-18T11:42:17.807Z,2.70
2023-03-18T11:44:46.615Z,2.65
2023-03-18T11:47:20.666Z,2.70
2023-03-18T11:49:49.942Z,3.20
2023-03-18T11:52:35.329Z,2.55
2023-03-18T11:55:15.671Z,3.22
2023-03-18T11:58:17.875Z,2.65
2023-03-18T12:00:55.347Z,2.83
2023-03-18T12:03:52.587Z,2.75
2023-03-18T12:06:23.366Z,2.83
2023-03-18T12:09:01.216Z,2.63
2023-03-18T12:11:48.866Z,2.80
2023-03-18T12:14:26.115Z,1.90
2023-03-18T12:17:05.470Z,2.13
2023-03-18T12:19:59.952Z,2.20
2023-03-18T12:22:47.717Z,2.10
2023-03-18T12:25:32.845Z,2.10
2023-03-18T12:28:07.750Z,1.70
2023-03-18T12:30:49.034Z,1.90
2023-03-18T12:33:31.223Z,1.70
2023-03-18T12:36:09.129Z,1.27
2023-03-18T12:39:05.869Z,1.58
2023-03-18T12:41:46.487Z,1.70
2023-03-18T12:44:27.758Z,1.40
2023-03-18T12:47:01.987Z,1.90
2023-03-18T12:49:34.725Z,1.58
2023-03-18T12:52:06.402Z,1.60
2023-03-18T12:54:42.998Z,1.35
2023-03-18T12:57:18.731Z,1.60
2023-03-18T12:59:53.268Z,1.50
2023-03-18T13:02:37.221Z,1.60
2023-03-18T13:05:14.344Z,1.35
2023-03-18T13:07:47.516Z,1.85
2023-03-18T13:10:23.421Z,1.58
2023-03-18T13:12:55.610Z,1.30
2023-03-18T13:15:30.223Z,1.40
2023-03-18T13:18:02.822Z,1.60
2023-03-18T13:20:34.024Z,1.45
2023-03-18T13:23:17.962Z,1.55
2023-03-18T13:26:00.106Z,1.30
2023-03-18T13:28:57.924Z,1.50
2023-03-18T13:31:37.982Z,1.80
2023-03-18T13:34:26.464Z,4.57
2023-03-18T13:37:33.961Z,1.52
2023-03-18T13:40:20.023Z,1.63
2023-03-18T13:42:50.650Z,1.50
2023-03-18T13:45:26.636Z,1.50
2023-03-18T13:48:00.495Z,1.05
2023-03-18T13:50:32.697Z,1.10
2023-03-18T13:53:02.686Z,1.10
2023-03-18T13:55:34.210Z,1.50
2023-03-18T13:58:23.866Z,1.63
2023-03-18T14:01:15.430Z,1.30
2023-03-18T14:04:31.377Z,1.30
2023-03-18T14:07:15.412Z,1.50
2023-03-18T14:09:52.536Z,1.65
2023-03-18T14:12:24.047Z,1.60
2023-03-18T14:15:02.586Z,1.50
2023-03-18T14:17:46.083Z,1.60
2023-03-18T14:20:24.429Z,1.38
2023-03-18T14:22:54.749Z,1.50
2023-03-18T14:28:20.992Z,1.42
2023-03-18T14:31:36.945Z,1.40
2023-03-18T14:34:25.364Z,1.27
2023-03-18T14:37:25.367Z,1.45
2023-03-18T14:39:56.313Z,1.20
2023-03-18T14:42:45.751Z,1.30
2023-03-18T14:45:21.026Z,1.37
2023-03-18T14:47:51.681Z,1.25
2023-03-18T14:50:30.063Z,1.73
2023-03-18T14:53:05.002Z,1.10
2023-03-18T14:55:35.459Z,1.23
2023-03-18T14:58:03.490Z,1.20
2023-03-18T15:00:35.440Z,1.30
2023-03-18T15:03:08.339Z,1.20
2023-03-18T15:05:40.881Z,1.60
2023-03-18T15:08:15.017Z,1.65
2023-03-18T15:10:44.550Z,1.35
2023-03-18T15:13:15.024Z,2.33
2023-03-18T15:15:43.146Z,1.70
2023-03-18T15:18:24.942Z,1.40
2023-03-18T15:20:57.189Z,1.40
2023-03-18T15:23:32.522Z,1.60
2023-03-18T15:26:00.411Z,1.40
2023-03-18T15:28:30.046Z,1.45
2023-03-18T15:31:00.395Z,2.17
2023-03-18T15:33:31.750Z,2.20
2023-03-18T15:36:06.918Z,1.10
2023-03-18T15:38:35.162Z,1.42
2023-03-18T15:41:05.588Z,1.45
2023-03-18T15:43:42.098Z,1.30
2023-03-18T15:46:18.693Z,2.05
2023-03-18T15:48:54.373Z,1.27
2023-03-18T15:51:28.941Z,2.50
2023-03-18T15:53:59.040Z,5.85
2023-03-18T15:56:29.682Z,2.25
2023-03-18T15:59:08.819Z,6.80
2023-03-18T16:01:37.714Z,6.07
2023-03-18T16:04:07.699Z,2.92
2023-03-18T16:06:38.555Z,5.18
2023-03-18T16:09:15.585Z,3.60
2023-03-18T16:11:44.765Z,3.08
2023-03-18T16:14:16.512Z,12.35
2023-03-18T16:16:44.486Z,4.30
2023-03-18T16:19:16.707Z,2.00
2023-03-18T16:21:46.055Z,2.70
2023-03-18T16:24:14.120Z,4.30
2023-03-18T16:26:42.385Z,6.43
2023-03-18T16:29:16.674Z,6.00
2023-03-18T16:31:44.562Z,3.47
2023-03-18T16:34:15.960Z,4.03
2023-03-18T16:36:45.224Z,7.50
2023-03-18T16:39:16.570Z,13.60
2023-03-18T16:41:45.158Z,7.15
2023-03-18T16:44:18.671Z,3.08
2023-03-18T16:46:47.955Z,2.38
2023-03-18T16:49:17.045Z,2.33
2023-03-18T16:51:46.756Z,1.60
2023-03-18T16:54:20.058Z,1.75
2023-03-18T16:56:51.230Z,2.08
2023-03-18T16:59:20.187Z,2.60
2023-03-18T17:01:48.502Z,4.60
2023-03-18T17:04:28.456Z,6.30
2023-03-18T17:06:58.047Z,5.93
2023-03-18T17:09:26.682Z,4.28
2023-03-18T17:11:58.765Z,5.10
2023-03-18T17:14:33.781Z,7.18
2023-03-18T17:17:04.095Z,3.97
2023-03-18T17:22:01.192Z,2.90
2023-03-18T17:24:29.206Z,7.30
2023-03-18T17:26:57.029Z,9.07
2023-03-18T17:29:26.749Z,9.20
2023-03-18T17:31:55.678Z,9.20
2023-03-18T17:34:24.105Z,6.47
2023-03-18T17:36:52.502Z,13.38
2023-03-18T17:39:21.718Z,15.23
2023-03-18T17:41:49.677Z,16.75
2023-03-18T17:44:29.651Z,25.35
2023-03-18T17:49:27.657Z,15.80
2023-03-18T17:51:56.994Z,14.95
2023-03-18T17:54:27.357Z,12.70
2023-03-18T17:56:55.976Z,10.20
2023-03-18T17:59:23.910Z,7.65
2023-03-18T18:01:52.500Z,8.85
2023-03-18T18:04:22.890Z,8.02
2023-03-18T18:09:19.304Z,8.43
2023-03-18T18:11:50.841Z,9.45
2023-03-18T18:14:22.224Z,11.63
2023-03-18T18:16:51.157Z,27.70
2023-03-18T18:19:19.483Z,25.52
2023-03-18T18:21:48.239Z,2.35
2023-03-18T18:24:22.949Z,2.38
2023-03-18T18:26:52.751Z,2.60
2023-03-18T18:29:22.882Z,3.63
2023-03-18T18:31:51.480Z,2.70
2023-03-18T18:34:20.158Z,3.03
2023-03-18T18:36:48.724Z,2.50
2023-03-18T18:39:16.567Z,2.58
2023-03-18T18:41:46.239Z,3.10
2023-03-18T18:44:15.780Z,2.72
2023-03-18T18:46:43.737Z,3.13
2023-03-18T18:49:22.006Z,3.45
2023-03-18T18:51:50.601Z,3.05
2023-03-18T18:54:18.407Z,3.70
2023-03-18T18:56:47.302Z,4.72
2023-03-18T18:59:26.864Z,6.30
2023-03-18T19:01:55.484Z,6.05
2023-03-18T19:04:23.585Z,5.00
2023-03-18T19:06:52.824Z,6.47
2023-03-18T19:09:23.711Z,6.72
2023-03-18T19:11:53.256Z,8.68
2023-03-18T19:14:25.397Z,5.88
2023-03-18T19:16:55.530Z,6.57
2023-03-18T19:19:28.836Z,6.10
2023-03-18T19:21:57.378Z,5.05
2023-03-18T19:24:28.605Z,5.60
2023-03-18T19:26:58.278Z,4.85
2023-03-18T19:29:29.063Z,4.68
2023-03-18T19:31:57.363Z,5.43
2023-03-18T19:34:26.908Z,5.35
2023-03-18T19:36:57.221Z,4.95
2023-03-18T19:41:53.681Z,4.97
2023-03-18T19:44:24.192Z,4.28
2023-03-18T19:46:56.302Z,5.40
2023-03-18T19:49:27.354Z,4.95
2023-03-18T19:51:56.063Z,6.28
2023-03-18T19:54:28.620Z,6.78
2023-03-18T19:57:00.508Z,7.10
2023-03-18T19:59:37.570Z,7.03
2023-03-18T20:02:19.892Z,6.63
2023-03-18T20:04:49.436Z,6.53
2023-03-18T20:07:19.097Z,3.92
2023-03-18T20:09:47.308Z,3.15
2023-03-18T20:12:24.904Z,3.85
2023-03-18T20:14:53.568Z,3.70
2023-03-18T20:17:37.310Z,4.22
2023-03-18T20:20:06.710Z,4.10
2023-03-18T20:22:37.520Z,4.83
2023-03-18T20:25:08.379Z,4.53
2023-03-18T20:27:36.352Z,5.13
2023-03-18T20:30:21.674Z,5.50
2023-03-18T20:32:51.343Z,5.97
2023-03-18T20:35:19.624Z,12.07
2023-03-18T20:37:48.184Z,6.75
2023-03-18T20:40:21.775Z,6.03
2023-03-18T20:42:50.043Z,8.13
2023-03-18T20:45:18.590Z,11.43
2023-03-18T20:47:46.821Z,10.38
2023-03-18T20:50:17.944Z,10.02
2023-03-18T20:52:48.080Z,11.82
2023-03-18T20:55:22.382Z,10.40
2023-03-18T20:57:50.754Z,12.05
2023-03-18T21:00:23.054Z,11.10
2023-03-18T21:02:52.177Z,10.80
2023-03-18T21:05:21.866Z,10.18
2023-03-18T21:07:50.364Z,11.85
2023-03-18T21:10:19.960Z,12.13
2023-03-18T21:12:48.980Z,11.55
2023-03-18T21:15:20.308Z,12.85
2023-03-18T21:17:49.105Z,10.75
2023-03-18T21:20:22.637Z,11.55
2023-03-18T21:22:52.505Z,10.90
2023-03-18T21:25:22.803Z,8.00
2023-03-18T21:27:51.579Z,7.22
2023-03-18T21:30:22.123Z,6.68
2023-03-18T21:32:51.187Z,5.25
2023-03-18T21:35:21.725Z,4.10
2023-03-18T21:37:50.115Z,4.10
2023-03-18T21:40:21.641Z,4.63
2023-03-18T21:42:49.712Z,4.45
2023-03-18T21:45:20.344Z,4.65
2023-03-18T21:47:48.164Z,4.32
2023-03-18T21:50:21.298Z,4.43
2023-03-18T21:52:49.641Z,10.00
2023-03-18T21:55:19.560Z,5.15
2023-03-18T21:57:49.039Z,6.10
2023-03-18T22:00:19.922Z,4.78
2023-03-18T22:02:49.161Z,5.47
2023-03-18T22:05:19.306Z,5.38
2023-03-18T22:10:17.581Z,5.53
2023-03-18T22:12:47.053Z,5.32
2023-03-18T22:15:37.123Z,6.13
2023-03-18T22:18:06.122Z,5.57
2023-03-18T22:20:35.832Z,5.55
2023-03-18T22:23:11.230Z,4.95
2023-03-18T22:25:40.045Z,4.13
2023-03-18T22:28:11.534Z,4.03
2023-03-18T22:30:41.974Z,6.63
2023-03-18T22:33:19.265Z,4.97
2023-03-18T22:35:47.460Z,5.80
2023-03-18T22:38:16.933Z,6.05
2023-03-18T22:40:46.435Z,7.25
2023-03-18T22:43:29.252Z,9.23
2023-03-18T22:45:57.577Z,9.05
2023-03-18T22:48:25.645Z,8.05
2023-03-18T22:50:54.102Z,7.72
2023-03-18T22:53:24.031Z,7.75
2023-03-18T22:55:54.279Z,8.68
2023-03-18T23:00:52.508Z,8.50
2023-03-18T23:03:23.128Z,8.00
2023-03-18T23:05:52.626Z,8.23
2023-03-18T23:08:21.294Z,8.17
2023-03-18T23:10:50.478Z,8.07
2023-03-18T23:13:22.560Z,7.70
2023-03-18T23:15:52.180Z,7.35
2023-03-18T23:18:20.541Z,8.20
2023-03-18T23:20:50.685Z,7.78
2023-03-18T23:23:20.898Z,5.70
2023-03-18T23:28:17.957Z,5.38
2023-03-18T23:30:49.003Z,4.47
2023-03-18T23:33:19.085Z,4.95
2023-03-18T23:35:48.115Z,4.18
2023-03-18T23:38:16.415Z,4.20
2023-03-18T23:40:44.281Z,4.78
2023-03-18T23:43:12.134Z,5.10
2023-03-18T23:45:40.452Z,4.57
2023-03-18T23:48:08.844Z,4.25
2023-03-18T23:50:38.147Z,4.38
2023-03-18T23:53:06.577Z,4.47
2023-03-18T23:55:35.410Z,4.25
2023-03-18T23:58:03.398Z,4.45
